.
WxDataArchive / Data Records for 2010-05-25
2010-05-24 May 2010 2010-05-26

Data Records for Tuesday, 25 May 2010

Time	Temp	Chill	HIndex	Humid	Dewpt	 Wind 	HiWind	WindDir	Rain 	Barom 
-----	----	-----	------	-----	-----	------	------	-------	-----	----- 
00:00	70.4	70.4	70.4	81	64.3	1	3	68	0.00	30.087 
00:05	70.3	70.3	70.3	81	64.2	0	3	90	0.00	30.087 
00:10	70.1	70.1	70.1	81	64.0	1	3	90	0.00	30.087 
00:15	69.9	69.9	69.9	82	64.1	1	3	90	0.00	30.086 
00:20	69.6	69.6	69.6	82	63.9	0	2	90	0.00	30.086 
00:25	69.4	69.4	69.4	82	63.7	0	3	90	0.00	30.086 
00:30	69.4	69.4	69.4	83	64.0	0	2	90	0.00	30.087 
00:35	69.3	69.3	69.3	83	63.9	0	2	90	0.00	30.087 
00:40	69.1	69.1	69.1	84	64.1	0	1	90	0.00	30.087 
00:45	68.9	68.9	68.9	84	63.9	0	1	90	0.00	30.088 
00:50	68.8	68.8	68.8	84	63.8	0	1	90	0.00	30.088 
00:55	68.6	68.6	68.6	84	63.6	0	1	90	0.00	30.088 
01:00	68.4	68.4	68.4	85	63.7	0	2	90	0.00	30.088 
01:05	68.3	68.3	68.3	85	63.6	0	1	90	0.00	30.088 
01:10	68.1	68.1	68.1	85	63.4	0	1	90	0.00	30.088 
01:15	67.9	67.9	67.9	86	63.5	0	2	90	0.00	30.088 
01:20	67.8	67.8	67.8	86	63.5	0	0	---	0.00	30.088 
01:25	67.8	67.8	67.8	87	63.8	0	1	90	0.00	30.088 
01:30	67.6	67.6	67.6	87	63.6	0	1	90	0.00	30.087 
01:35	67.8	67.8	67.8	87	63.8	0	2	90	0.00	30.087 
01:40	67.8	67.8	67.8	87	63.8	0	2	90	0.00	30.087 
01:45	67.8	67.8	67.8	87	63.8	0	1	90	0.00	30.084 
01:50	67.8	67.8	67.8	87	63.8	0	2	90	0.00	30.084 
01:55	67.8	67.8	67.8	87	63.8	0	1	90	0.00	30.084 
02:00	67.6	67.6	67.6	87	63.6	0	1	90	0.00	30.084 
02:05	67.4	67.4	67.4	87	63.4	0	2	90	0.00	30.084 
02:10	67.3	67.3	67.3	87	63.3	0	2	90	0.00	30.084 
02:15	67.3	67.3	67.3	88	63.6	0	2	90	0.00	30.086 
02:20	67.1	67.1	67.1	88	63.4	0	2	90	0.00	30.086 
02:25	66.9	66.9	66.9	88	63.2	0	2	90	0.00	30.086 
02:30	66.8	66.8	66.8	88	63.1	0	2	90	0.00	30.088 
02:35	66.6	66.6	66.6	88	62.9	0	1	90	0.00	30.088 
02:40	66.4	66.4	66.4	88	62.7	0	2	90	0.00	30.088 
02:45	66.3	66.3	66.3	89	63.0	0	2	90	0.00	30.086 
02:50	66.3	66.3	66.3	89	63.0	0	1	90	0.00	30.086 
02:55	66.1	66.1	66.1	89	62.8	0	0	---	0.00	30.086 
03:00	66.0	66.0	66.0	89	62.7	0	1	90	0.00	30.087 
03:05	65.8	65.8	65.8	89	62.5	0	1	90	0.00	30.087 
03:10	65.6	65.6	65.6	89	62.3	0	0	---	0.00	30.087 
03:15	65.5	65.5	65.5	90	62.5	0	0	---	0.00	30.090 
03:20	65.3	65.3	65.3	90	62.3	0	0	---	0.00	30.090 
03:25	65.0	65.0	65.0	90	62.0	0	0	---	0.00	30.090 
03:30	64.8	64.8	64.8	90	61.8	0	0	---	0.00	30.090 
03:35	64.7	64.7	64.7	90	61.7	0	0	---	0.00	30.090 
03:40	64.5	64.5	64.5	90	61.5	0	0	---	0.00	30.090 
03:45	64.5	64.5	64.5	91	61.8	0	0	---	0.00	30.089 
03:50	64.3	64.3	64.3	91	61.6	0	0	---	0.00	30.089 
03:55	64.2	64.2	64.2	91	61.5	0	0	---	0.00	30.089 
04:00	64.0	64.0	64.0	91	61.3	0	0	---	0.00	30.089 
04:05	63.9	63.9	63.9	91	61.2	0	0	---	0.00	30.089 
04:10	63.9	63.9	63.9	92	61.5	0	0	---	0.00	30.089 
04:15	63.7	63.7	63.7	92	61.3	0	0	---	0.00	30.089 
04:20	63.5	63.5	63.5	92	61.1	0	0	---	0.00	30.089 
04:25	63.5	63.5	63.5	92	61.1	0	1	90	0.00	30.089 
04:30	63.5	63.5	63.5	92	61.1	0	0	---	0.00	30.090 
04:35	63.5	63.5	63.5	92	61.1	0	0	---	0.00	30.090 
04:40	63.5	63.5	63.5	93	61.4	0	1	90	0.00	30.090 
04:45	63.7	63.7	63.7	92	61.3	0	1	90	0.00	30.090 
04:50	63.7	63.7	63.7	92	61.3	0	0	---	0.00	30.090 
04:55	63.7	63.7	63.7	92	61.3	0	0	---	0.00	30.090 
05:00	63.5	63.5	63.5	92	61.1	0	0	---	0.00	30.090 
05:05	63.4	63.4	63.4	92	61.0	0	0	---	0.00	30.090 
05:10	63.2	63.2	63.2	92	60.8	0	0	---	0.00	30.090 
05:15	63.1	63.1	63.1	92	60.7	0	0	---	0.00	30.091 
05:20	62.9	62.9	62.9	92	60.5	0	0	---	0.00	30.091 
05:25	62.9	62.9	62.9	92	60.5	0	0	---	0.00	30.091 
05:30	62.9	62.9	62.9	93	60.8	0	0	---	0.00	30.094 
05:35	62.9	62.9	62.9	93	60.8	0	1	90	0.00	30.094 
05:40	63.1	63.1	63.1	93	61.0	0	1	90	0.00	30.094 
05:45	63.1	63.1	63.1	93	61.0	0	1	90	0.00	30.095 
05:50	63.1	63.1	63.1	93	61.0	0	1	90	0.00	30.095 
05:55	63.1	63.1	63.1	93	61.0	0	1	90	0.00	30.095 
06:00	63.1	63.1	63.1	93	61.0	0	1	90	0.00	30.096 
06:05	62.9	62.9	62.9	93	60.8	0	1	90	0.00	30.096 
06:10	62.9	62.9	62.9	93	60.8	0	1	90	0.00	30.096 
06:15	62.9	62.9	62.9	93	60.8	0	0	---	0.00	30.108 
06:20	62.9	62.9	62.9	93	60.8	0	2	90	0.00	30.108 
06:25	62.7	62.7	62.7	93	60.6	0	1	90	0.00	30.108 
06:30	62.9	62.9	62.9	93	60.8	0	1	90	0.00	30.118 
06:35	62.9	62.9	62.9	93	60.8	0	1	90	0.00	30.118 
06:40	62.9	62.9	62.9	93	60.8	0	2	90	0.00	30.118 
06:45	62.9	62.9	62.9	93	60.8	0	2	90	0.00	30.121 
06:50	62.9	62.9	62.9	92	60.5	0	2	90	0.00	30.121 
06:55	63.1	63.1	63.1	92	60.7	0	1	90	0.00	30.121 
07:00	63.2	63.2	63.2	92	60.8	0	1	90	0.00	30.124 
07:05	63.4	63.4	63.4	92	61.0	0	1	90	0.00	30.124 
07:10	63.5	63.5	63.5	92	61.1	0	1	90	0.00	30.124 
07:15	63.9	63.9	63.9	92	61.5	0	2	90	0.00	30.132 
07:20	64.3	64.3	64.3	91	61.6	1	3	90	0.00	30.132 
07:25	64.8	64.8	64.8	89	61.5	1	3	90	0.00	30.132 
07:30	65.3	65.3	65.3	88	61.6	1	3	90	0.00	30.132 
07:35	65.8	65.8	65.8	87	61.8	1	3	90	0.00	30.132 
07:40	66.3	66.3	66.3	86	62.0	0	2	90	0.00	30.132 
07:45	66.8	66.8	66.8	84	61.8	0	2	90	0.00	30.133 
07:50	67.3	67.3	67.3	84	62.3	0	2	90	0.00	30.133 
07:55	67.8	67.8	67.8	83	62.4	0	2	90	0.00	30.133 
08:00	68.4	68.4	68.4	81	62.3	0	3	90	0.00	30.137 
08:05	68.9	68.9	68.9	80	62.5	1	4	90	0.00	30.137 
08:10	69.4	69.4	69.4	78	62.2	1	4	112	0.00	30.137 
08:15	69.9	69.9	69.9	77	62.3	1	2	90	0.00	30.140 
08:20	70.3	70.3	70.3	76	62.4	1	6	68	0.00	30.140 
08:25	70.8	70.8	70.8	76	62.8	0	3	68	0.00	30.140 
08:30	71.3	71.3	71.3	74	62.6	1	3	68	0.00	30.148 
08:35	71.6	71.6	71.6	74	62.9	0	3	68	0.00	30.148 
08:40	72.1	72.1	72.1	73	63.0	1	4	90	0.00	30.148 
08:45	72.3	72.3	72.3	73	63.1	1	3	90	0.00	30.149 
08:50	72.7	72.7	72.7	72	63.1	0	2	90	0.00	30.149 
08:55	73.3	73.3	73.3	72	63.7	0	3	90	0.00	30.149 
09:00	73.7	73.7	73.7	71	63.7	1	3	90	0.00	30.149 
09:05	74.0	74.0	74.0	69	63.2	1	2	90	0.00	30.149 
09:10	73.9	73.9	73.9	71	63.9	1	3	90	0.00	30.149 
09:15	74.0	74.0	74.0	70	63.6	1	3	90	0.00	30.148 
09:20	74.4	74.4	74.4	69	63.5	1	2	90	0.00	30.148 
09:25	74.7	74.7	74.7	69	63.8	0	2	90	0.00	30.148 
09:30	75.4	75.4	77.2	68	64.1	0	3	90	0.00	30.141 
09:35	75.3	75.3	77.1	68	64.0	1	4	90	0.00	30.141 
09:40	75.4	75.4	77.3	67	63.7	0	2	90	0.00	30.141 
09:45	75.8	75.8	77.7	65	63.2	0	2	90	0.00	30.144 
09:50	76.7	76.7	78.5	65	64.0	1	2	90	0.00	30.144 
09:55	76.7	76.7	78.5	66	64.5	1	3	90	0.00	30.144 
10:00	76.7	76.7	78.5	66	64.5	1	3	90	0.00	30.136 
10:05	76.8	76.8	78.6	66	64.6	1	2	90	0.00	30.136 
10:10	77.2	77.2	79.0	65	64.5	0	2	90	0.00	30.136 
10:15	77.4	77.4	79.2	64	64.2	1	2	90	0.00	30.140 
10:20	77.7	77.7	79.5	63	64.1	1	3	90	0.00	30.140 
10:25	77.4	77.4	79.2	65	64.7	2	6	90	0.00	30.140 
10:30	77.2	77.2	79.0	66	64.9	1	4	90	0.00	30.136 
10:35	77.6	77.6	79.4	65	64.9	1	4	90	0.00	30.136 
10:40	77.7	77.7	79.5	63	64.1	1	4	90	0.00	30.136 
10:45	77.7	77.7	79.5	63	64.1	2	5	90	0.00	30.136 
10:50	77.9	77.9	79.7	64	64.7	1	3	135	0.00	30.136 
10:55	78.3	78.3	80.2	64	65.1	1	3	135	0.00	30.136 
11:00	78.6	78.6	80.5	64	65.4	1	4	90	0.00	30.132 
11:05	78.8	78.8	80.6	62	64.7	2	5	90	0.00	30.132 
11:10	78.8	78.8	80.7	63	65.1	2	5	68	0.00	30.132 
11:15	78.6	78.6	80.4	62	64.5	1	3	90	0.00	30.131 
11:20	79.0	79.0	80.8	62	64.8	2	4	90	0.00	30.131 
11:25	79.6	79.6	81.4	61	64.9	1	3	112	0.00	30.131 
11:30	79.8	79.8	81.6	60	64.7	1	4	112	0.00	30.127 
11:35	80.3	80.3	82.4	62	66.1	1	3	68	0.00	30.127 
11:40	80.9	80.9	82.4	56	63.7	1	3	135	0.00	30.127 
11:45	81.2	81.2	82.6	55	63.5	1	5	90	0.00	30.125 
11:50	81.1	81.1	82.9	58	64.9	2	4	90	0.00	30.125 
11:55	81.1	81.1	82.5	55	63.4	1	4	90	0.00	30.125 
12:00	81.1	81.1	82.9	58	64.9	2	5	112	0.00	30.121 
12:05	81.1	81.1	82.5	55	63.4	2	5	90	0.00	30.121 
12:10	81.4	81.4	82.5	53	62.6	1	3	112	0.00	30.121 
12:15	81.6	81.6	82.9	54	63.3	2	7	68	0.00	30.119 
12:20	81.6	81.6	83.4	57	64.9	2	5	112	0.00	30.119 
12:25	81.4	81.4	82.8	55	63.7	2	6	112	0.00	30.119 
12:30	81.4	81.4	82.8	55	63.7	1	3	90	0.00	30.123 
12:35	81.6	81.6	82.9	54	63.3	1	4	90	0.00	30.123 
12:40	81.8	81.8	83.2	54	63.5	2	6	90	0.00	30.123 
12:45	81.4	81.4	82.7	54	63.1	3	9	112	0.00	30.122 
12:50	81.8	81.8	82.8	52	62.4	2	8	90	0.00	30.122 
12:55	82.4	82.4	83.7	53	63.5	2	4	90	0.00	30.122 
13:00	82.4	82.4	83.9	54	64.1	2	4	112	0.00	30.117 
13:05	82.6	82.6	83.6	51	62.6	2	7	90	0.00	30.117 
13:10	82.6	82.6	83.4	50	62.0	2	4	112	0.00	30.117 
13:15	82.4	82.4	83.5	52	63.0	1	4	112	0.00	30.117 
13:20	81.8	81.8	83.3	55	64.0	2	7	112	0.00	30.117 
13:25	81.8	81.8	83.2	54	63.5	3	6	90	0.00	30.117 
13:30	81.6	81.6	82.8	53	62.8	2	4	90	0.00	30.115 
13:35	81.4	81.4	82.4	52	62.1	2	4	112	0.00	30.115 
13:40	82.0	82.0	83.2	53	63.2	1	6	112	0.00	30.115 
13:45	82.6	82.6	84.0	53	63.7	1	5	112	0.00	30.112 
13:50	83.0	83.0	84.3	52	63.5	2	5	112	0.00	30.112 
13:55	83.4	83.4	84.8	52	63.9	1	3	112	0.00	30.112 
14:00	84.0	84.0	84.9	49	62.8	2	5	90	0.00	30.113 
14:05	83.8	83.8	84.5	48	62.0	2	5	112	0.00	30.113 
14:10	83.6	83.6	84.6	50	63.0	1	6	90	0.00	30.113 
14:15	83.8	83.8	84.5	48	62.0	2	6	68	0.00	30.107 
14:20	83.4	83.4	84.2	49	62.2	3	5	90	0.00	30.107 
14:25	83.4	83.4	84.4	50	62.8	2	5	90	0.00	30.107 
14:30	83.6	83.6	84.8	51	63.5	2	6	90	0.00	30.102 
14:35	83.8	83.8	84.3	47	61.4	3	7	90	0.00	30.102 
14:40	84.0	84.0	84.3	46	61.0	2	5	112	0.00	30.102 
14:45	84.1	84.1	84.6	47	61.7	1	4	68	0.00	30.104 
14:50	84.7	84.7	84.7	44	60.3	0	1	68	0.00	30.104 
14:55	85.1	85.1	85.2	44	60.7	2	5	112	0.00	30.104 
15:00	85.3	85.3	86.1	47	62.8	1	3	68	0.00	30.097 
15:05	85.7	85.7	86.7	47	63.1	1	3	112	0.00	30.097 
15:10	86.1	86.1	86.7	45	62.2	1	3	112	0.00	30.097 
15:15	86.3	86.3	86.7	44	61.8	2	5	112	0.00	30.089 
15:20	85.7	85.7	86.0	44	61.2	2	4	112	0.00	30.089 
15:25	85.3	85.3	85.9	46	62.1	1	3	90	0.00	30.089 
15:30	85.1	85.1	85.4	45	61.3	1	3	90	0.00	30.090 
15:35	84.7	84.7	85.0	45	61.0	1	3	90	0.00	30.090 
15:40	85.1	85.1	86.1	48	63.2	1	4	248	0.00	30.090 
15:45	85.1	85.1	85.7	46	62.0	1	2	248	0.00	30.084 
15:50	84.9	84.9	85.2	45	61.2	1	3	90	0.00	30.084 
15:55	85.3	85.3	86.6	49	63.9	1	3	90	0.00	30.084 
16:00	85.7	85.7	86.7	47	63.1	1	4	90	0.00	30.078 
16:05	85.7	85.7	86.4	46	62.5	1	3	292	0.00	30.078 
16:10	85.5	85.5	85.5	43	60.4	2	4	90	0.00	30.078 
16:15	85.3	85.3	85.5	44	60.9	1	4	112	0.00	30.080 
16:20	84.9	84.9	85.2	45	61.2	1	4	112	0.00	30.080 
16:25	85.3	85.3	85.9	46	62.1	1	3	112	0.00	30.080 
16:30	85.5	85.5	85.5	43	60.4	1	4	112	0.00	30.072 
16:35	85.5	85.5	85.9	45	61.7	1	4	90	0.00	30.072 
16:40	85.1	85.1	85.2	44	60.7	1	4	90	0.00	30.072 
16:45	84.9	84.9	85.4	46	61.8	1	3	90	0.00	30.069 
16:50	84.9	84.9	85.2	45	61.2	0	3	292	0.00	30.069 
16:55	85.1	85.1	85.7	46	62.0	1	4	0	0.00	30.069 
17:00	84.9	84.9	85.2	45	61.2	1	3	292	0.00	30.063 
17:05	84.9	84.9	85.2	45	61.2	0	2	292	0.00	30.063 
17:10	84.7	84.7	84.6	43	59.7	1	3	292	0.00	30.063 
17:15	84.5	84.5	84.7	45	60.8	0	2	270	0.00	30.069 
17:20	84.9	84.9	85.6	47	62.4	0	2	270	0.00	30.069 
17:25	85.5	85.5	85.5	43	60.4	1	4	270	0.00	30.069 
17:30	85.3	85.3	85.2	43	60.2	2	6	112	0.00	30.070 
17:35	85.1	85.1	84.8	42	59.4	0	3	112	0.00	30.070 
17:40	85.1	85.1	85.0	43	60.1	1	5	270	0.00	30.070 
17:45	84.7	84.7	84.6	43	59.7	1	3	68	0.00	30.070 
17:50	84.7	84.7	84.7	44	60.3	0	1	68	0.00	30.070 
17:55	84.7	84.7	84.7	44	60.3	0	3	0	0.00	30.070 
18:00	84.7	84.7	85.2	46	61.6	1	3	248	0.00	30.065 
18:05	84.5	84.5	84.5	44	60.2	1	2	158	0.00	30.065 
18:10	84.5	84.5	84.5	44	60.2	0	2	158	0.00	30.065 
18:15	84.3	84.3	84.9	47	61.8	0	3	248	0.00	30.063 
18:20	84.3	84.3	84.5	45	60.6	0	3	248	0.00	30.063 
18:25	84.1	84.1	84.4	46	61.1	0	3	292	0.00	30.063 
18:30	83.8	83.8	84.3	47	61.4	0	1	292	0.00	30.060 
18:35	83.6	83.6	84.1	47	61.2	0	1	292	0.00	30.060 
18:40	83.6	83.6	84.1	47	61.2	0	1	292	0.00	30.060 
18:45	83.6	83.6	83.9	46	60.6	0	1	292	0.00	30.058 
18:50	83.4	83.4	83.5	45	59.8	0	2	292	0.00	30.058 
18:55	83.4	83.4	83.5	45	59.8	0	1	292	0.00	30.058 
19:00	83.4	83.4	83.7	46	60.4	0	1	292	0.00	30.059 
19:05	83.4	83.4	84.2	49	62.2	0	0	---	0.00	30.059 
19:10	83.4	83.4	84.2	49	62.2	0	0	---	0.00	30.059 
19:15	83.2	83.2	83.6	47	60.8	0	1	292	0.00	30.055 
19:20	83.0	83.0	83.4	47	60.7	0	2	292	0.00	30.055 
19:25	83.0	83.0	83.4	47	60.7	0	1	292	0.00	30.055 
19:30	82.8	82.8	83.5	49	61.7	0	0	---	0.00	30.054 
19:35	82.6	82.6	83.6	51	62.6	0	0	---	0.00	30.054 
19:40	82.4	82.4	83.2	50	61.9	0	1	292	0.00	30.054 
19:45	82.4	82.4	82.9	48	60.7	0	0	---	0.00	30.055 
19:50	82.2	82.2	83.0	50	61.7	0	0	---	0.00	30.055 
19:55	82.0	82.0	82.5	48	60.3	0	1	292	0.00	30.055 
20:00	82.0	82.0	82.6	49	60.9	0	0	---	0.00	30.052 
20:05	81.8	81.8	82.7	51	61.9	0	0	---	0.00	30.052 
20:10	81.6	81.6	82.5	51	61.7	0	0	---	0.00	30.052 
20:15	81.4	81.4	82.3	51	61.5	0	0	---	0.00	30.052 
20:20	81.2	81.2	82.2	52	61.9	0	0	---	0.00	30.052 
20:25	80.9	80.9	81.9	52	61.6	0	0	---	0.00	30.052 
20:30	80.7	80.7	81.7	52	61.4	0	0	---	0.00	30.050 
20:35	80.3	80.3	81.3	52	61.0	0	0	---	0.00	30.050 
20:40	80.1	80.1	81.2	53	61.4	0	0	---	0.00	30.050 
20:45	79.9	79.9	81.1	54	61.7	0	0	---	0.00	30.048 
20:50	79.8	79.8	81.0	54	61.7	0	0	---	0.00	30.048 
20:55	79.4	79.4	80.6	54	61.3	0	0	---	0.00	30.048 
21:00	79.2	79.2	80.7	57	62.6	0	0	---	0.00	30.042 
21:05	79.0	79.0	80.4	56	61.9	0	0	---	0.00	30.042 
21:10	78.6	78.6	80.1	57	62.1	0	0	---	0.00	30.042 
21:15	78.5	78.5	80.0	58	62.5	0	0	---	0.00	30.040 
21:20	78.1	78.1	79.7	58	62.1	0	0	---	0.00	30.040 
21:25	77.9	77.9	79.5	58	61.9	0	0	---	0.00	30.040 
21:30	77.7	77.7	79.4	60	62.7	0	0	---	0.00	30.046 
21:35	77.4	77.4	79.1	61	62.9	0	0	---	0.00	30.046 
21:40	77.2	77.2	79.0	61	62.7	0	0	---	0.00	30.046 
21:45	76.8	76.8	78.6	62	62.8	0	0	---	0.00	30.049 
21:50	76.7	76.7	78.5	63	63.1	0	0	---	0.00	30.049 
21:55	76.5	76.5	78.3	64	63.4	0	0	---	0.00	30.049 
22:00	76.1	76.1	78.0	65	63.5	0	0	---	0.00	30.054 
22:05	76.0	76.0	77.8	66	63.8	0	0	---	0.00	30.054 
22:10	75.8	75.8	77.6	68	64.5	0	0	---	0.00	30.054 
22:15	75.6	75.6	77.3	69	64.7	0	0	---	0.00	30.052 
22:20	75.4	75.4	77.1	70	64.9	0	0	---	0.00	30.052 
22:25	75.3	75.3	77.0	70	64.8	0	0	---	0.00	30.052 
22:30	75.1	75.1	76.8	70	64.6	0	0	---	0.00	30.053 
22:35	74.9	74.9	74.9	70	64.4	0	0	---	0.00	30.053 
22:40	74.6	74.6	74.6	71	64.6	0	0	---	0.00	30.053 
22:45	74.4	74.4	74.4	71	64.4	0	0	---	0.00	30.054 
22:50	74.2	74.2	74.2	71	64.2	0	0	---	0.00	30.054 
22:55	74.0	74.0	74.0	71	64.0	0	0	---	0.00	30.054 
23:00	73.9	73.9	73.9	70	63.5	0	0	---	0.00	30.054 
23:05	73.7	73.7	73.7	71	63.7	0	1	292	0.00	30.054 
23:10	73.9	73.9	73.9	70	63.5	0	2	0	0.00	30.054 
23:15	74.0	74.0	74.0	70	63.6	0	1	0	0.00	30.053 
23:20	74.0	74.0	74.0	70	63.6	0	0	---	0.00	30.053 
23:25	74.0	74.0	74.0	71	64.0	0	0	---	0.00	30.053 
23:30	73.9	73.9	73.9	71	63.9	0	1	0	0.00	30.051 
23:35	73.7	73.7	73.7	72	64.1	0	0	---	0.00	30.051 
23:40	73.3	73.3	73.3	72	63.7	0	0	---	0.00	30.051 
23:45	73.0	73.0	73.0	73	63.8	0	0	---	0.00	30.051 
23:50	72.8	72.8	72.8	73	63.6	0	0	---	0.00	30.051 
23:55	72.5	72.5	72.5	74	63.7	0	0	---	0.00	30.051 

CoCoRaHS
IN-AL-39
A2 Web Hosting
Creative Commons License
GoDaddy
search engine by freefind advanced

loaded 2018-11-15 14:24:50 • last modified 2010-11-18 10:43:29
Privacy PolicyDisclaimer
• wx.awcolley.com is powered by PmWiki v.2002016 •
• all content (unless otherwise noted) © 2018 A W Colley